createdAt,value
2022-12-01T00:00:12.840Z,1024.05
2022-12-01T00:01:12.646Z,1024.04
2022-12-01T00:02:12.612Z,1024.05
2022-12-01T00:03:12.561Z,1023.95
2022-12-01T00:04:12.318Z,1023.99
2022-12-01T00:05:12.481Z,1023.93
2022-12-01T00:06:12.172Z,1023.93
2022-12-01T00:07:12.126Z,1023.94
2022-12-01T00:08:12.002Z,1024.01
2022-12-01T00:09:16.529Z,1023.96
2022-12-01T00:10:11.864Z,1023.99
2022-12-01T00:11:11.863Z,1023.96
2022-12-01T00:12:11.711Z,1023.95
2022-12-01T00:13:11.717Z,1023.94
2022-12-01T00:14:11.666Z,1023.96
2022-12-01T00:15:11.517Z,1023.95
2022-12-01T00:16:11.522Z,1023.96
2022-12-01T00:17:11.408Z,1023.90
2022-12-01T00:18:11.350Z,1023.90
2022-12-01T00:19:11.235Z,1023.88
2022-12-01T00:20:11.215Z,1023.94
2022-12-01T00:21:11.130Z,1023.90
2022-12-01T00:22:11.305Z,1023.92
2022-12-01T00:23:11.047Z,1023.89
2022-12-01T00:24:10.919Z,1023.94
2022-12-01T00:25:10.871Z,1023.97
2022-12-01T00:26:10.720Z,1023.96
2022-12-01T00:27:10.794Z,1023.91
2022-12-01T00:28:10.656Z,1023.95
2022-12-01T00:29:10.576Z,1023.95
2022-12-01T00:30:10.475Z,1023.94
2022-12-01T00:31:10.596Z,1023.94
2022-12-01T00:32:10.388Z,1023.96
2022-12-01T00:33:10.235Z,1023.96
2022-12-01T00:34:11.591Z,1023.92
2022-12-01T00:35:10.086Z,1023.92
2022-12-01T00:36:10.025Z,1023.93
2022-12-01T00:37:10.085Z,1023.98
2022-12-01T00:38:09.910Z,1023.98
2022-12-01T00:39:09.859Z,1023.93
2022-12-01T00:40:09.863Z,1023.93
2022-12-01T00:41:09.713Z,1023.91
2022-12-01T00:42:13.202Z,1023.88
2022-12-01T00:43:09.516Z,1023.86
2022-12-01T00:44:09.493Z,1023.91
2022-12-01T00:45:09.481Z,1023.94
2022-12-01T00:46:09.449Z,1023.94
2022-12-01T00:47:09.260Z,1023.95
2022-12-01T00:48:09.212Z,1023.98
2022-12-01T00:49:09.240Z,1023.99
2022-12-01T00:50:09.023Z,1024.01
2022-12-01T00:51:09.166Z,1023.97
2022-12-01T00:52:08.879Z,1023.97
2022-12-01T00:53:08.871Z,1023.97
2022-12-01T00:54:08.789Z,1024.02
2022-12-01T00:55:08.690Z,1023.95
2022-12-01T00:56:08.839Z,1023.97
2022-12-01T00:57:08.606Z,1024.01
2022-12-01T00:58:08.463Z,1024.02
2022-12-01T00:59:08.399Z,1024.06
2022-12-01T01:00:08.403Z,1024.08
2022-12-01T01:01:08.278Z,1024.09
2022-12-01T01:02:08.277Z,1024.09
2022-12-01T01:03:08.142Z,1024.07
2022-12-01T01:04:08.121Z,1024.14
2022-12-01T01:05:08.060Z,1024.15
2022-12-01T01:06:07.910Z,1024.14
2022-12-01T01:07:07.827Z,1024.14
2022-12-01T01:08:07.947Z,1024.12
2022-12-01T01:09:07.825Z,1024.14
2022-12-01T01:10:07.630Z,1024.15
2022-12-01T01:11:07.570Z,1024.16
2022-12-01T01:12:07.573Z,1024.14
2022-12-01T01:13:07.420Z,1024.16
2022-12-01T01:14:07.418Z,1024.20
2022-12-01T01:15:07.363Z,1024.22
2022-12-01T01:16:07.206Z,1024.23
2022-12-01T01:17:07.180Z,1024.20
2022-12-01T01:18:07.133Z,1024.16
2022-12-01T01:19:06.974Z,1024.20
2022-12-01T01:20:07.054Z,1024.23
2022-12-01T01:21:06.905Z,1024.20
2022-12-01T01:22:06.868Z,1024.22
2022-12-01T01:23:06.691Z,1024.23
2022-12-01T01:24:06.656Z,1024.17
2022-12-01T01:25:06.725Z,1024.20
2022-12-01T01:26:06.647Z,1024.15
2022-12-01T01:27:06.459Z,1024.13
2022-12-01T01:28:06.420Z,1024.17
2022-12-01T01:29:06.294Z,1024.14
2022-12-01T01:30:06.217Z,1024.14
2022-12-01T01:31:06.305Z,1024.17
2022-12-01T01:32:06.155Z,1024.14
2022-12-01T01:33:06.007Z,1024.15
2022-12-01T01:34:05.922Z,1024.14
2022-12-01T01:35:05.973Z,1024.15
2022-12-01T01:36:05.782Z,1024.15
2022-12-01T01:37:05.710Z,1024.16
2022-12-01T01:38:05.650Z,1024.12
2022-12-01T01:39:05.593Z,1024.10
2022-12-01T01:40:05.585Z,1024.13
2022-12-01T01:41:05.575Z,1024.08
2022-12-01T01:42:05.363Z,1024.12
2022-12-01T01:43:05.305Z,1024.12
2022-12-01T01:44:05.250Z,1024.10
2022-12-01T01:45:05.165Z,1024.07
2022-12-01T01:46:05.145Z,1024.07
2022-12-01T01:47:05.092Z,1024.07
2022-12-01T01:48:04.961Z,1024.14
2022-12-01T01:49:04.904Z,1024.13
2022-12-01T01:50:04.908Z,1024.08
2022-12-01T01:51:04.896Z,1024.16
2022-12-01T01:52:04.636Z,1024.15
2022-12-01T01:53:04.777Z,1024.17
2022-12-01T01:54:04.515Z,1024.17
2022-12-01T01:55:04.453Z,1024.17
2022-12-01T01:56:04.459Z,1024.21
2022-12-01T01:57:04.335Z,1024.15
2022-12-01T01:58:04.250Z,1024.19
2022-12-01T01:59:04.167Z,1024.17
2022-12-01T02:00:04.165Z,1024.18
2022-12-01T02:01:04.136Z,1024.12
2022-12-01T02:02:03.993Z,1024.12
2022-12-01T02:03:03.976Z,1024.17
2022-12-01T02:04:03.878Z,1024.14
2022-12-01T02:05:03.733Z,1024.16
2022-12-01T02:06:05.093Z,1024.14
2022-12-01T02:07:03.639Z,1024.15
2022-12-01T02:08:03.589Z,1024.14
2022-12-01T02:09:03.509Z,1024.13
2022-12-01T02:10:03.467Z,1024.13
2022-12-01T02:11:03.284Z,1024.11
2022-12-01T02:12:03.325Z,1024.08
2022-12-01T02:13:03.157Z,1024.09
2022-12-01T02:14:03.233Z,1024.04
2022-12-01T02:15:03.037Z,1024.06
2022-12-01T02:16:02.977Z,1024.04
2022-12-01T02:17:03.028Z,1024.02
2022-12-01T02:18:02.806Z,1024.06
2022-12-01T02:19:02.861Z,1024.00
2022-12-01T02:20:02.787Z,1023.98
2022-12-01T02:21:02.699Z,1024.00
2022-12-01T02:22:02.627Z,1023.93
2022-12-01T02:23:02.586Z,1023.96
2022-12-01T02:24:02.607Z,1024.00
2022-12-01T02:25:02.421Z,1023.99
2022-12-01T02:26:02.511Z,1023.96
2022-12-01T02:27:02.193Z,1023.96
2022-12-01T02:28:02.170Z,1023.95
2022-12-01T02:29:02.007Z,1023.95
2022-12-01T02:30:02.000Z,1023.93
2022-12-01T02:31:01.908Z,1023.99
2022-12-01T02:32:01.958Z,1023.92
2022-12-01T02:33:01.782Z,1023.95
2022-12-01T02:34:01.696Z,1023.96
2022-12-01T02:35:01.668Z,1023.96
2022-12-01T02:36:01.567Z,1023.93
2022-12-01T02:37:01.520Z,1023.93
2022-12-01T02:38:01.479Z,1023.93
2022-12-01T02:39:01.315Z,1023.94
2022-12-01T02:40:01.308Z,1023.95
2022-12-01T02:41:01.193Z,1023.90
2022-12-01T02:42:01.108Z,1023.89
2022-12-01T02:43:01.030Z,1023.88
2022-12-01T02:44:00.976Z,1023.90
2022-12-01T02:45:00.904Z,1023.89
2022-12-01T02:46:01.062Z,1023.88
2022-12-01T02:47:00.797Z,1023.87
2022-12-01T02:48:00.661Z,1023.85
2022-12-01T02:49:00.630Z,1023.89
2022-12-01T02:50:00.552Z,1023.88
2022-12-01T02:51:00.500Z,1023.87
2022-12-01T02:52:00.398Z,1023.91
2022-12-01T02:53:00.484Z,1023.90
2022-12-01T02:54:00.290Z,1023.92
2022-12-01T02:55:00.205Z,1023.88
2022-12-01T02:56:00.098Z,1023.92
2022-12-01T02:57:00.151Z,1023.93
2022-12-01T02:58:00.033Z,1023.92
2022-12-01T02:58:59.968Z,1023.90
2022-12-01T02:59:59.844Z,1023.90
2022-12-01T03:00:59.936Z,1023.94
2022-12-01T03:01:59.711Z,1023.90
2022-12-01T03:02:59.679Z,1023.95
2022-12-01T03:03:59.566Z,1023.95
2022-12-01T03:04:59.471Z,1023.87
2022-12-01T03:05:59.416Z,1023.93
2022-12-01T03:06:59.331Z,1023.92
2022-12-01T03:07:59.307Z,1023.94
2022-12-01T03:08:59.200Z,1023.91
2022-12-01T03:09:59.147Z,1023.94
2022-12-01T03:10:59.086Z,1023.91
2022-12-01T03:11:58.980Z,1023.92
2022-12-01T03:12:58.943Z,1023.98
2022-12-01T03:13:58.818Z,1023.95
2022-12-01T03:14:58.869Z,1023.93
2022-12-01T03:15:58.759Z,1023.91
2022-12-01T03:16:58.654Z,1023.97
2022-12-01T03:17:58.609Z,1023.94
2022-12-01T03:18:58.561Z,1023.99
2022-12-01T03:19:58.420Z,1023.98
2022-12-01T03:20:58.354Z,1023.93
2022-12-01T03:21:58.307Z,1023.92
2022-12-01T03:22:58.195Z,1023.95
2022-12-01T03:23:58.183Z,1023.91
2022-12-01T03:24:58.075Z,1023.92
2022-12-01T03:25:58.191Z,1023.91
2022-12-01T03:26:58.024Z,1023.89
2022-12-01T03:28:21.047Z,1023.93
2022-12-01T03:28:57.782Z,1023.96
2022-12-01T03:29:57.697Z,1023.95
2022-12-01T03:30:57.704Z,1023.99
2022-12-01T03:31:57.611Z,1023.89
2022-12-01T03:32:57.511Z,1023.95
2022-12-01T03:33:57.415Z,1023.91
2022-12-01T03:34:57.327Z,1023.90
2022-12-01T03:35:57.352Z,1023.94
2022-12-01T03:36:57.270Z,1023.91
2022-12-01T03:37:57.108Z,1023.88
2022-12-01T03:38:57.085Z,1023.89
2022-12-01T03:40:00.298Z,1023.87
2022-12-01T03:40:56.976Z,1023.93
2022-12-01T03:41:56.837Z,1023.90
2022-12-01T03:42:56.832Z,1023.90
2022-12-01T03:43:56.705Z,1023.83
2022-12-01T03:44:56.680Z,1023.85
2022-12-01T03:45:56.607Z,1023.89
2022-12-01T03:46:56.480Z,1023.89
2022-12-01T03:47:56.456Z,1023.90
2022-12-01T03:48:56.394Z,1023.88
2022-12-01T03:49:56.354Z,1023.93
2022-12-01T03:50:56.330Z,1023.90
2022-12-01T03:51:56.194Z,1023.90
2022-12-01T03:52:56.067Z,1023.93
2022-12-01T03:53:56.004Z,1023.97
2022-12-01T03:54:55.943Z,1023.96
2022-12-01T03:55:55.906Z,1023.98
2022-12-01T03:56:55.920Z,1024.02
2022-12-01T03:57:55.735Z,1024.00
2022-12-01T03:58:55.774Z,1024.02
2022-12-01T03:59:55.599Z,1024.04
2022-12-01T04:00:55.595Z,1024.04
2022-12-01T04:01:55.465Z,1024.05
2022-12-01T04:02:55.382Z,1024.06
2022-12-01T04:03:55.308Z,1024.09
2022-12-01T04:04:55.251Z,1024.05
2022-12-01T04:05:55.180Z,1024.12
2022-12-01T04:06:55.101Z,1024.16
2022-12-01T04:07:55.155Z,1024.08
2022-12-01T04:08:54.928Z,1024.13
2022-12-01T04:09:54.839Z,1024.15
2022-12-01T04:10:54.795Z,1024.14
2022-12-01T04:11:54.771Z,1024.15
2022-12-01T04:12:54.669Z,1024.14
2022-12-01T04:13:54.566Z,1024.16
2022-12-01T04:14:54.637Z,1024.18
2022-12-01T04:15:54.482Z,1024.19
2022-12-01T04:16:54.442Z,1024.18
2022-12-01T04:17:54.288Z,1024.14
2022-12-01T04:18:54.221Z,1024.14
2022-12-01T04:19:54.166Z,1024.15
2022-12-01T04:20:54.110Z,1024.12
2022-12-01T04:21:54.013Z,1024.15
2022-12-01T04:22:54.000Z,1024.11
2022-12-01T04:23:53.866Z,1024.10
2022-12-01T04:24:53.851Z,1024.10
2022-12-01T04:25:53.789Z,1024.15
2022-12-01T04:26:53.766Z,1024.15
2022-12-01T04:27:53.625Z,1024.10
2022-12-01T04:28:53.553Z,1024.12
2022-12-01T04:29:53.508Z,1024.09
2022-12-01T04:30:53.422Z,1024.17
2022-12-01T04:31:53.338Z,1024.10
2022-12-01T04:32:53.284Z,1024.10
2022-12-01T04:33:53.191Z,1024.11
2022-12-01T04:34:53.186Z,1024.15
2022-12-01T04:35:53.010Z,1024.14
2022-12-01T04:36:53.059Z,1024.18
2022-12-01T04:37:53.027Z,1024.15
2022-12-01T04:38:52.827Z,1024.18
2022-12-01T04:39:52.858Z,1024.19
2022-12-01T04:40:52.782Z,1024.18
2022-12-01T04:41:52.604Z,1024.17
2022-12-01T04:42:52.575Z,1024.19
2022-12-01T04:43:52.467Z,1024.19
2022-12-01T04:44:52.382Z,1024.18
2022-12-01T04:45:52.333Z,1024.15
2022-12-01T04:46:52.400Z,1024.13
2022-12-01T04:47:52.151Z,1024.16
2022-12-01T04:48:52.171Z,1024.17
2022-12-01T04:49:52.173Z,1024.15
2022-12-01T04:50:51.942Z,1024.23
2022-12-01T04:51:51.955Z,1024.21
2022-12-01T04:52:51.896Z,1024.23
2022-12-01T04:53:51.755Z,1024.21
2022-12-01T04:54:51.710Z,1024.20
2022-12-01T04:55:51.600Z,1024.22
2022-12-01T04:56:51.503Z,1024.22
2022-12-01T04:57:51.576Z,1024.20
2022-12-01T04:58:51.567Z,1024.28
2022-12-01T04:59:51.667Z,1024.24
2022-12-01T05:00:51.280Z,1024.24
2022-12-01T05:01:51.206Z,1024.24
2022-12-01T05:02:51.130Z,1024.22
2022-12-01T05:03:51.016Z,1024.29
2022-12-01T05:04:51.054Z,1024.25
2022-12-01T05:05:51.002Z,1024.24
2022-12-01T05:06:50.828Z,1024.26
2022-12-01T05:07:50.784Z,1024.27
2022-12-01T05:08:50.725Z,1024.26
2022-12-01T05:09:50.939Z,1024.27
2022-12-01T05:10:50.524Z,1024.27
2022-12-01T05:11:50.483Z,1024.24
2022-12-01T05:12:50.388Z,1024.27
2022-12-01T05:13:50.302Z,1024.21
2022-12-01T05:14:50.457Z,1024.24
2022-12-01T05:15:50.220Z,1024.24
2022-12-01T05:16:50.177Z,1024.27
2022-12-01T05:17:50.016Z,1024.24
2022-12-01T05:18:50.108Z,1024.21
2022-12-01T05:19:50.225Z,1024.26
2022-12-01T05:20:49.869Z,1024.26
2022-12-01T05:21:49.732Z,1024.25
2022-12-01T05:23:05.988Z,1024.30
2022-12-01T05:23:49.700Z,1024.25
2022-12-01T05:24:49.633Z,1024.28
2022-12-01T05:25:49.541Z,1024.33
2022-12-01T05:26:49.443Z,1024.32
2022-12-01T05:27:49.364Z,1024.32
2022-12-01T05:28:49.474Z,1024.33
2022-12-01T05:29:49.562Z,1024.34
2022-12-01T05:30:49.173Z,1024.33
2022-12-01T05:31:49.344Z,1024.31
2022-12-01T05:32:48.986Z,1024.34
2022-12-01T05:33:48.895Z,1024.33
2022-12-01T05:34:48.881Z,1024.33
2022-12-01T05:35:48.766Z,1024.36
2022-12-01T05:36:48.716Z,1024.42
2022-12-01T05:37:48.708Z,1024.40
2022-12-01T05:38:48.568Z,1024.38
2022-12-01T05:39:48.825Z,1024.38
2022-12-01T05:40:48.688Z,1024.38
2022-12-01T05:41:48.360Z,1024.35
2022-12-01T05:42:48.281Z,1024.38
2022-12-01T05:43:48.252Z,1024.42
2022-12-01T05:44:48.231Z,1024.40
2022-12-01T05:45:48.251Z,1024.41
2022-12-01T05:46:48.130Z,1024.44
2022-12-01T05:47:48.024Z,1024.51
2022-12-01T05:48:47.855Z,1024.50
2022-12-01T05:49:48.064Z,1024.49
2022-12-01T05:50:47.742Z,1024.46
2022-12-01T05:51:47.657Z,1024.51
2022-12-01T05:52:47.572Z,1024.47
2022-12-01T05:53:47.490Z,1024.50
2022-12-01T05:54:47.395Z,1024.50
2022-12-01T05:55:47.376Z,1024.53
2022-12-01T05:56:47.260Z,1024.50
2022-12-01T05:57:47.366Z,1024.53
2022-12-01T05:58:47.160Z,1024.57
2022-12-01T05:59:47.543Z,1024.59
2022-12-01T06:00:47.051Z,1024.55
2022-12-01T06:01:47.340Z,1024.60
2022-12-01T06:02:47.129Z,1024.56
2022-12-01T06:03:46.924Z,1024.52
2022-12-01T06:04:46.793Z,1024.52
2022-12-01T06:05:46.780Z,1024.54
2022-12-01T06:06:46.557Z,1024.46
2022-12-01T06:07:46.580Z,1024.47
2022-12-01T06:08:46.497Z,1024.49
2022-12-01T06:09:46.641Z,1024.49
2022-12-01T06:10:46.337Z,1024.48
2022-12-01T06:11:50.039Z,1024.48
2022-12-01T06:12:46.212Z,1024.48
2022-12-01T06:13:46.038Z,1024.43
2022-12-01T06:14:45.981Z,1024.44
2022-12-01T06:15:45.907Z,1024.51
2022-12-01T06:16:45.932Z,1024.44
2022-12-01T06:17:45.793Z,1024.47
2022-12-01T06:18:45.713Z,1024.48
2022-12-01T06:19:45.626Z,1024.48
2022-12-01T06:20:45.537Z,1024.47
2022-12-01T06:21:45.526Z,1024.49
2022-12-01T06:22:45.485Z,1024.48
2022-12-01T06:23:45.450Z,1024.49
2022-12-01T06:24:45.444Z,1024.49
2022-12-01T06:25:45.191Z,1024.51
2022-12-01T06:26:45.193Z,1024.54
2022-12-01T06:27:45.190Z,1024.54
2022-12-01T06:28:45.129Z,1024.52
2022-12-01T06:29:44.967Z,1024.55
2022-12-01T06:30:44.866Z,1024.55
2022-12-01T06:31:44.912Z,1024.57
2022-12-01T06:32:44.705Z,1024.52
2022-12-01T06:33:44.649Z,1024.56
2022-12-01T06:34:45.010Z,1024.55
2022-12-01T06:35:44.569Z,1024.59
2022-12-01T06:36:45.508Z,1024.53
2022-12-01T06:37:45.140Z,1024.54
2022-12-01T06:38:45.013Z,1024.57
2022-12-01T06:39:44.227Z,1024.55
2022-12-01T06:40:44.155Z,1024.60
2022-12-01T06:41:44.112Z,1024.56
2022-12-01T06:42:45.086Z,1024.63
2022-12-01T06:43:44.409Z,1024.61
2022-12-01T06:44:43.875Z,1024.58
2022-12-01T06:45:45.112Z,1024.63
2022-12-01T06:46:43.977Z,1024.66
2022-12-01T06:47:44.026Z,1024.65
2022-12-01T06:48:43.948Z,1024.67
2022-12-01T06:49:44.012Z,1024.70
2022-12-01T06:50:44.094Z,1024.71
2022-12-01T06:51:43.406Z,1024.72
2022-12-01T06:52:44.247Z,1024.73
2022-12-01T06:53:43.288Z,1024.72
2022-12-01T06:54:44.001Z,1024.71
2022-12-01T06:55:43.992Z,1024.71
2022-12-01T06:56:43.304Z,1024.68
2022-12-01T06:58:42.841Z,1024.70
2022-12-01T06:59:42.980Z,1024.73
2022-12-01T07:00:45.385Z,1024.72
2022-12-01T07:01:43.081Z,1024.73
2022-12-01T07:02:42.760Z,1024.71
2022-12-01T07:03:42.947Z,1024.76
2022-12-01T07:04:42.828Z,1024.75
2022-12-01T07:05:42.812Z,1024.73
2022-12-01T07:06:43.256Z,1024.75
2022-12-01T07:07:42.270Z,1024.71
2022-12-01T07:08:42.833Z,1024.72
2022-12-01T07:09:42.134Z,1024.73
2022-12-01T07:10:41.983Z,1024.77
2022-12-01T07:11:42.005Z,1024.74
2022-12-01T07:12:42.587Z,1024.72
2022-12-01T07:13:42.989Z,1024.74
2022-12-01T07:14:41.794Z,1024.78
2022-12-01T07:15:42.077Z,1024.78
2022-12-01T07:16:43.873Z,1024.74
2022-12-01T07:17:41.549Z,1024.74
2022-12-01T07:18:41.442Z,1024.80
2022-12-01T07:19:41.421Z,1024.84
2022-12-01T07:20:41.302Z,1024.84
2022-12-01T07:21:41.625Z,1024.82
2022-12-01T07:22:41.251Z,1024.84
2022-12-01T07:23:41.971Z,1024.85
2022-12-01T07:26:42.182Z,1024.82
2022-12-01T07:27:40.944Z,1024.82
2022-12-01T07:28:41.225Z,1024.84
2022-12-01T07:29:40.666Z,1024.84
2022-12-01T07:30:40.820Z,1024.85
2022-12-01T07:31:40.831Z,1024.83
2022-12-01T07:32:40.517Z,1024.79
2022-12-01T07:33:40.409Z,1024.83
2022-12-01T07:34:40.467Z,1024.79
2022-12-01T07:35:40.214Z,1024.77
2022-12-01T07:36:40.793Z,1024.80
2022-12-01T07:37:40.165Z,1024.82
2022-12-01T07:38:40.024Z,1024.81
2022-12-01T07:39:39.940Z,1024.80
2022-12-01T07:40:39.876Z,1024.75
2022-12-01T07:42:39.770Z,1024.77
2022-12-01T07:43:39.739Z,1024.78
2022-12-01T07:44:40.615Z,1024.76
2022-12-01T07:45:39.604Z,1024.78
2022-12-01T07:46:41.001Z,1024.76
2022-12-01T07:47:39.880Z,1024.81
2022-12-01T07:48:39.353Z,1024.83
2022-12-01T07:49:39.233Z,1024.81
2022-12-01T07:50:39.773Z,1024.83
2022-12-01T07:51:40.874Z,1024.80
2022-12-01T07:52:39.361Z,1024.83
2022-12-01T07:53:40.219Z,1024.82
2022-12-01T07:54:38.919Z,1024.81
2022-12-01T07:55:38.812Z,1024.85
2022-12-01T07:56:39.333Z,1024.89
2022-12-01T07:57:38.959Z,1024.85
2022-12-01T07:58:38.633Z,1024.92
2022-12-01T07:59:38.596Z,1024.94
2022-12-01T08:00:38.761Z,1024.91
2022-12-01T08:01:44.213Z,1024.95
2022-12-01T08:02:38.564Z,1024.98
2022-12-01T08:03:41.746Z,1024.94
2022-12-01T08:04:38.758Z,1024.94
2022-12-01T08:05:38.120Z,1024.93
2022-12-01T08:06:38.103Z,1024.94
2022-12-01T08:07:38.036Z,1024.97
2022-12-01T08:08:37.931Z,1024.99
2022-12-01T08:09:37.796Z,1024.98
2022-12-01T08:10:37.945Z,1024.99
2022-12-01T08:11:37.742Z,1024.97
2022-12-01T08:12:37.591Z,1025.01
2022-12-01T08:13:37.521Z,1025.03
2022-12-01T08:14:37.566Z,1025.02
2022-12-01T08:15:37.398Z,1025.04
2022-12-01T08:16:37.413Z,1025.07
2022-12-01T08:17:37.247Z,1025.09
2022-12-01T08:18:37.217Z,1025.08
2022-12-01T08:19:37.128Z,1025.06
2022-12-01T08:20:37.173Z,1025.08
2022-12-01T08:21:37.494Z,1025.08
2022-12-01T08:22:37.269Z,1025.05
2022-12-01T08:23:37.408Z,1025.03
2022-12-01T08:24:37.963Z,1025.04
2022-12-01T08:25:36.877Z,1025.05
2022-12-01T08:26:37.168Z,1025.03
2022-12-01T08:27:36.543Z,1025.03
2022-12-01T08:28:36.773Z,1025.02
2022-12-01T08:29:36.399Z,1025.03
2022-12-01T08:30:37.033Z,1025.04
2022-12-01T08:31:36.702Z,1025.00
2022-12-01T08:32:36.647Z,1025.04
2022-12-01T08:33:36.097Z,1025.04
2022-12-01T08:34:36.039Z,1025.02
2022-12-01T08:35:37.762Z,1025.03
2022-12-01T08:36:35.939Z,1025.08
2022-12-01T08:37:35.950Z,1025.05
2022-12-01T08:38:36.161Z,1025.05
2022-12-01T08:39:35.650Z,1025.05
2022-12-01T08:40:35.595Z,1024.96
2022-12-01T08:41:35.853Z,1025.04
2022-12-01T08:42:35.644Z,1025.05
2022-12-01T08:43:56.508Z,1024.99
2022-12-01T08:44:35.388Z,1025.07
2022-12-01T08:45:35.299Z,1025.05
2022-12-01T08:46:35.385Z,1025.08
2022-12-01T08:47:35.331Z,1025.09
2022-12-01T08:48:35.087Z,1025.10
2022-12-01T08:49:34.994Z,1025.10
2022-12-01T08:50:34.897Z,1025.13
2022-12-01T08:51:35.007Z,1025.09
2022-12-01T08:52:34.818Z,1025.09
2022-12-01T08:53:34.823Z,1025.07
2022-12-01T08:54:34.774Z,1025.09
2022-12-01T08:55:34.641Z,1025.02
2022-12-01T08:56:34.520Z,1025.08
2022-12-01T08:57:34.379Z,1025.03
2022-12-01T08:58:34.493Z,1025.07
2022-12-01T08:59:34.487Z,1025.07
2022-12-01T09:00:34.342Z,1025.08
2022-12-01T09:01:34.298Z,1025.12
2022-12-01T09:02:34.281Z,1025.11
2022-12-01T09:03:34.026Z,1025.13
2022-12-01T09:04:33.947Z,1025.14
2022-12-01T09:05:33.873Z,1025.11
2022-12-01T09:06:34.066Z,1025.15
2022-12-01T09:07:33.730Z,1025.18
2022-12-01T09:08:33.614Z,1025.13
2022-12-01T09:09:33.562Z,1025.12
2022-12-01T09:10:33.552Z,1025.18
2022-12-01T09:11:33.473Z,1025.13
2022-12-01T09:12:33.352Z,1025.15
2022-12-01T09:13:33.258Z,1025.18
2022-12-01T09:14:33.289Z,1025.19
2022-12-01T09:15:33.177Z,1025.23
2022-12-01T09:16:33.318Z,1025.27
2022-12-01T09:17:33.234Z,1025.22
2022-12-01T09:18:33.014Z,1025.17
2022-12-01T09:19:32.848Z,1025.23
2022-12-01T09:20:32.801Z,1025.20
2022-12-01T09:21:32.837Z,1025.18
2022-12-01T09:22:32.940Z,1025.18
2022-12-01T09:23:32.569Z,1025.19
2022-12-01T09:24:32.497Z,1025.21
2022-12-01T09:25:32.516Z,1025.23
2022-12-01T09:26:32.323Z,1025.19
2022-12-01T09:27:32.292Z,1025.16
2022-12-01T09:28:32.228Z,1025.18
2022-12-01T09:29:32.211Z,1025.19
2022-12-01T09:30:32.046Z,1025.14
2022-12-01T09:31:32.048Z,1025.15
2022-12-01T09:32:31.946Z,1025.17
2022-12-01T09:33:32.008Z,1025.10
2022-12-01T09:34:31.847Z,1025.10
2022-12-01T09:35:31.814Z,1025.12
2022-12-01T09:36:31.628Z,1025.09
2022-12-01T09:37:31.720Z,1025.10
2022-12-01T09:38:31.660Z,1025.08
2022-12-01T09:39:31.451Z,1025.12
2022-12-01T09:40:31.347Z,1025.06
2022-12-01T09:41:31.355Z,1025.09
2022-12-01T09:42:35.348Z,1025.08
2022-12-01T09:43:31.293Z,1025.14
2022-12-01T09:44:31.087Z,1025.18
2022-12-01T09:45:31.058Z,1025.04
2022-12-01T09:46:31.218Z,1025.12
2022-12-01T09:47:30.932Z,1025.04
2022-12-01T09:48:30.817Z,1025.08
2022-12-01T09:49:30.811Z,1025.04
2022-12-01T09:50:30.650Z,1025.09
2022-12-01T09:51:30.833Z,1025.06
2022-12-01T09:52:30.527Z,1025.05
2022-12-01T09:53:30.507Z,1025.03
2022-12-01T09:54:30.404Z,1025.02
2022-12-01T09:55:30.435Z,1024.96
2022-12-01T09:56:30.336Z,1025.01
2022-12-01T09:57:30.301Z,1024.99
2022-12-01T09:58:30.158Z,1025.01
2022-12-01T09:59:30.027Z,1024.99
2022-12-01T10:00:29.937Z,1024.99
2022-12-01T10:01:29.926Z,1024.98
2022-12-01T10:02:29.891Z,1025.01
2022-12-01T10:03:29.843Z,1024.97
2022-12-01T10:04:29.716Z,1024.99
2022-12-01T10:05:29.801Z,1025.00
2022-12-01T10:06:29.617Z,1025.00
2022-12-01T10:07:29.548Z,1025.00
2022-12-01T10:08:29.474Z,1025.05
2022-12-01T10:09:29.502Z,1025.05
2022-12-01T10:10:29.380Z,1025.04
2022-12-01T10:11:29.132Z,1024.99
2022-12-01T10:12:29.140Z,1024.99
2022-12-01T10:13:29.023Z,1024.98
2022-12-01T10:14:29.049Z,1024.98
2022-12-01T10:15:28.869Z,1024.95
2022-12-01T10:16:28.917Z,1024.98
2022-12-01T10:17:28.897Z,1024.94
2022-12-01T10:18:28.704Z,1024.92
2022-12-01T10:19:28.572Z,1024.97
2022-12-01T10:20:28.515Z,1024.95
2022-12-01T10:21:28.521Z,1024.91
2022-12-01T10:22:28.690Z,1024.87
2022-12-01T10:23:28.460Z,1024.89
2022-12-01T10:24:28.317Z,1024.89
2022-12-01T10:25:28.237Z,1024.88
2022-12-01T10:26:28.267Z,1024.86
2022-12-01T10:27:28.152Z,1024.84
2022-12-01T10:28:28.010Z,1024.88
2022-12-01T10:29:27.895Z,1024.83
2022-12-01T10:30:27.925Z,1024.83
2022-12-01T10:31:27.819Z,1024.87
2022-12-01T10:32:27.677Z,1024.84
2022-12-01T10:33:27.614Z,1024.85
2022-12-01T10:34:27.619Z,1024.90
2022-12-01T10:35:27.525Z,1024.87
2022-12-01T10:36:27.380Z,1024.86
2022-12-01T10:37:27.387Z,1024.84
2022-12-01T10:38:27.261Z,1024.89
2022-12-01T10:39:27.197Z,1024.83
2022-12-01T10:40:27.254Z,1024.88
2022-12-01T10:41:27.132Z,1024.87
2022-12-01T10:42:27.208Z,1024.85
2022-12-01T10:43:26.969Z,1024.90
2022-12-01T10:44:26.841Z,1024.88
2022-12-01T10:45:26.873Z,1024.83
2022-12-01T10:46:26.737Z,1024.88
2022-12-01T10:47:26.613Z,1024.86
2022-12-01T10:48:26.656Z,1024.85
2022-12-01T10:49:26.548Z,1024.84
2022-12-01T10:50:26.462Z,1024.81
2022-12-01T10:51:26.417Z,1024.81
2022-12-01T10:52:26.279Z,1024.81
2022-12-01T10:53:26.290Z,1024.81
2022-12-01T10:54:26.217Z,1024.83
2022-12-01T10:55:26.176Z,1024.78
2022-12-01T10:56:25.965Z,1024.77
2022-12-01T10:57:25.900Z,1024.78
2022-12-01T10:58:25.906Z,1024.77
2022-12-01T10:59:25.858Z,1024.74
2022-12-01T11:00:58.114Z,1024.79
2022-12-01T11:01:25.948Z,1024.74
2022-12-01T11:02:25.793Z,1024.73
2022-12-01T11:03:25.747Z,1024.72
2022-12-01T11:04:25.496Z,1024.72
2022-12-01T11:05:25.627Z,1024.71
2022-12-01T11:06:25.293Z,1024.68
2022-12-01T11:07:25.360Z,1024.72
2022-12-01T11:08:25.180Z,1024.76
2022-12-01T11:09:26.635Z,1024.71
2022-12-01T11:10:25.001Z,1024.71
2022-12-01T11:11:25.063Z,1024.71
2022-12-01T11:12:24.891Z,1024.66
2022-12-01T11:13:25.045Z,1024.67
2022-12-01T11:14:24.743Z,1024.66
2022-12-01T11:15:24.703Z,1024.65
2022-12-01T11:16:24.641Z,1024.67
2022-12-01T11:17:24.790Z,1024.67
2022-12-01T11:18:24.417Z,1024.70
2022-12-01T11:19:37.703Z,1024.68
2022-12-01T11:20:24.352Z,1024.65
2022-12-01T11:21:24.226Z,1024.70
2022-12-01T11:22:24.182Z,1024.71
2022-12-01T11:23:24.594Z,1024.68
2022-12-01T11:24:24.478Z,1024.71
2022-12-01T11:25:24.482Z,1024.69
2022-12-01T11:26:24.124Z,1024.64
2022-12-01T11:28:24.044Z,1024.71
2022-12-01T11:29:24.764Z,1024.65
2022-12-01T11:30:23.608Z,1024.67
2022-12-01T11:31:26.205Z,1024.62
2022-12-01T11:33:23.386Z,1024.60
2022-12-01T11:34:23.855Z,1024.56
2022-12-01T11:35:23.481Z,1024.58
2022-12-01T11:36:23.679Z,1024.59
2022-12-01T11:37:23.096Z,1024.58
2022-12-01T11:38:30.668Z,1024.57
2022-12-01T11:39:23.941Z,1024.54
2022-12-01T11:40:23.722Z,1024.54
2022-12-01T11:42:22.782Z,1024.55
2022-12-01T11:43:22.686Z,1024.56
2022-12-01T11:45:22.588Z,1024.56
2022-12-01T11:46:24.040Z,1024.52
2022-12-01T11:47:24.114Z,1024.49
2022-12-01T11:48:24.999Z,1024.53
2022-12-01T11:49:23.381Z,1024.54
2022-12-01T11:50:22.328Z,1024.54
2022-12-01T11:51:22.794Z,1024.51
2022-12-01T11:52:22.746Z,1024.56
2022-12-01T11:53:22.969Z,1024.51
2022-12-01T11:54:22.408Z,1024.52
2022-12-01T11:55:21.907Z,1024.55
2022-12-01T11:56:21.959Z,1024.52
2022-12-01T11:57:37.164Z,1024.52
2022-12-01T11:58:22.122Z,1024.52
2022-12-01T11:59:22.282Z,1024.57
2022-12-01T12:00:21.571Z,1024.57
2022-12-01T12:01:22.237Z,1024.59
2022-12-01T12:02:21.420Z,1024.60
2022-12-01T12:03:21.824Z,1024.56
2022-12-01T12:04:22.781Z,1024.53
2022-12-01T12:05:22.315Z,1024.56
2022-12-01T12:07:21.076Z,1024.56
2022-12-01T12:09:21.670Z,1024.54
2022-12-01T12:10:21.745Z,1024.55
2022-12-01T12:11:20.736Z,1024.56
2022-12-01T12:12:20.631Z,1024.57
2022-12-01T12:13:20.804Z,1024.56
2022-12-01T12:14:21.375Z,1024.56